createdAt,value
2022-12-14T00:01:52.818Z,78.87
2022-12-14T00:04:23.022Z,78.70
2022-12-14T00:06:49.847Z,78.62
2022-12-14T00:09:16.561Z,77.94
2022-12-14T00:11:45.906Z,77.89
2022-12-14T00:14:16.711Z,77.71
2022-12-14T00:16:48.926Z,77.85
2022-12-14T00:19:22.546Z,77.21
2022-12-14T00:22:04.052Z,77.13
2022-12-14T00:24:36.579Z,78.07
2022-12-14T00:27:08.652Z,78.04
2022-12-14T00:29:53.268Z,77.29
2022-12-14T00:32:24.676Z,76.87
2022-12-14T00:34:55.673Z,77.24
2022-12-14T00:37:32.825Z,77.30
2022-12-14T00:40:02.128Z,77.31
2022-12-14T00:42:38.466Z,77.16
2022-12-14T00:45:08.849Z,77.07
2022-12-14T00:47:42.028Z,77.13
2022-12-14T00:50:12.462Z,77.31
2022-12-14T00:52:50.936Z,76.66
2022-12-14T00:55:19.691Z,76.08
2022-12-14T00:57:55.777Z,76.24
2022-12-14T01:00:31.358Z,76.00
2022-12-14T01:03:02.457Z,76.05
2022-12-14T01:05:37.726Z,76.22
2022-12-14T01:08:17.543Z,76.00
2022-12-14T01:10:55.900Z,76.17
2022-12-14T01:13:32.538Z,75.86
2022-12-14T01:16:04.850Z,75.46
2022-12-14T01:18:40.229Z,75.90
2022-12-14T01:21:21.625Z,76.18
2022-12-14T01:24:08.178Z,76.21
2022-12-14T01:26:42.801Z,76.14
2022-12-14T01:29:22.740Z,76.09
2022-12-14T01:31:51.827Z,75.89
2022-12-14T01:34:21.360Z,75.34
2022-12-14T01:36:51.596Z,75.20
2022-12-14T01:39:27.175Z,75.87
2022-12-14T01:42:01.167Z,75.81
2022-12-14T01:44:35.972Z,75.44
2022-12-14T01:47:38.521Z,75.13
2022-12-14T01:50:09.700Z,75.51
2022-12-14T01:52:40.547Z,75.66
2022-12-14T01:55:13.473Z,75.15
2022-12-14T01:58:09.104Z,74.76
2022-12-14T02:00:36.675Z,75.22
2022-12-14T02:03:19.398Z,75.49
2022-12-14T02:05:52.950Z,75.38
2022-12-14T02:08:26.319Z,75.04
2022-12-14T02:11:01.903Z,75.28
2022-12-14T02:13:35.750Z,75.74
2022-12-14T02:16:07.822Z,75.50
2022-12-14T02:18:41.047Z,75.18
2022-12-14T02:21:21.875Z,75.59
2022-12-14T02:23:54.275Z,75.07
2022-12-14T02:26:28.991Z,75.36
2022-12-14T02:29:00.137Z,74.51
2022-12-14T02:31:29.873Z,75.21
2022-12-14T02:34:02.464Z,75.58
2022-12-14T02:36:58.598Z,75.19
2022-12-14T02:39:27.895Z,74.24
2022-12-14T02:42:01.596Z,74.23
2022-12-14T02:44:53.998Z,74.87
2022-12-14T02:47:30.915Z,74.20
2022-12-14T02:50:19.478Z,74.83
2022-12-14T02:53:11.356Z,74.39
2022-12-14T02:55:44.164Z,75.07
2022-12-14T02:58:19.912Z,74.45
2022-12-14T03:00:49.982Z,74.80
2022-12-14T03:03:23.868Z,74.19
2022-12-14T03:06:25.944Z,74.17
2022-12-14T03:09:19.174Z,74.37
2022-12-14T03:12:01.910Z,74.56
2022-12-14T03:14:38.671Z,74.55
2022-12-14T03:17:13.226Z,74.08
2022-12-14T03:19:50.727Z,74.01
2022-12-14T03:22:25.592Z,74.53
2022-12-14T03:24:59.192Z,74.50
2022-12-14T03:27:33.212Z,73.77
2022-12-14T03:30:02.794Z,74.71
2022-12-14T03:32:32.067Z,74.69
2022-12-14T03:35:02.962Z,73.87
2022-12-14T03:37:32.989Z,74.69
2022-12-14T03:39:59.982Z,74.80
2022-12-14T03:42:39.945Z,74.69
2022-12-14T03:45:16.543Z,74.01
2022-12-14T03:48:03.658Z,74.22
2022-12-14T03:50:47.095Z,74.73
2022-12-14T03:53:20.827Z,74.25
2022-12-14T03:55:49.105Z,74.62
2022-12-14T03:58:24.029Z,74.67
2022-12-14T04:01:00.983Z,74.08
2022-12-14T04:03:49.589Z,73.95
2022-12-14T04:06:37.564Z,74.19
2022-12-14T04:09:17.788Z,74.52
2022-12-14T04:12:12.647Z,74.04
2022-12-14T04:15:06.238Z,73.92
2022-12-14T04:17:56.491Z,74.56
2022-12-14T04:20:27.955Z,74.27
2022-12-14T04:23:02.957Z,73.92
2022-12-14T04:25:53.271Z,74.39
2022-12-14T04:28:42.414Z,74.27
2022-12-14T04:31:15.918Z,74.08
2022-12-14T04:33:54.449Z,74.53
2022-12-14T04:36:52.128Z,74.40
2022-12-14T04:39:39.578Z,73.71
2022-12-14T04:42:23.523Z,74.06
2022-12-14T04:44:54.862Z,73.70
2022-12-14T04:47:30.164Z,74.40
2022-12-14T04:50:01.813Z,74.22
2022-12-14T04:52:33.471Z,74.59
2022-12-14T04:55:15.189Z,74.45
2022-12-14T04:57:46.584Z,74.97
2022-12-14T05:00:13.355Z,74.35
2022-12-14T05:02:47.901Z,74.51
2022-12-14T05:05:14.235Z,74.80
2022-12-14T05:07:53.263Z,75.00
2022-12-14T05:10:24.027Z,74.71
2022-12-14T05:13:00.740Z,74.85
2022-12-14T05:15:31.767Z,75.17
2022-12-14T05:18:01.864Z,73.93
2022-12-14T05:20:28.304Z,74.48
2022-12-14T05:22:54.654Z,74.85
2022-12-14T05:25:21.101Z,75.01
2022-12-14T05:27:47.475Z,74.83
2022-12-14T05:30:13.940Z,75.05
2022-12-14T05:32:40.321Z,74.88
2022-12-14T05:35:07.191Z,74.58
2022-12-14T05:37:33.588Z,74.67
2022-12-14T05:39:59.970Z,74.82
2022-12-14T05:42:26.430Z,74.65
2022-12-14T05:44:52.774Z,74.51
2022-12-14T05:47:19.111Z,74.97
2022-12-14T05:49:45.695Z,74.57
2022-12-14T05:52:15.737Z,74.32
2022-12-14T05:54:42.133Z,74.39
2022-12-14T05:57:08.595Z,75.09
2022-12-14T05:59:34.979Z,74.65
2022-12-14T06:02:01.533Z,74.48
2022-12-14T06:04:28.173Z,74.72
2022-12-14T06:06:54.937Z,75.30
2022-12-14T06:09:21.317Z,75.20
2022-12-14T06:11:47.781Z,74.61
2022-12-14T06:14:14.396Z,74.99
2022-12-14T06:16:41.686Z,75.19
2022-12-14T06:19:08.783Z,74.80
2022-12-14T06:21:36.143Z,75.28
2022-12-14T06:24:03.284Z,74.99
2022-12-14T06:26:30.312Z,75.02
2022-12-14T06:28:57.128Z,75.22
2022-12-14T06:31:27.942Z,75.02
2022-12-14T06:33:54.737Z,75.39
2022-12-14T06:36:31.953Z,74.90
2022-12-14T06:39:00.339Z,75.11
2022-12-14T06:41:26.753Z,74.90
2022-12-14T06:43:53.666Z,74.79
2022-12-14T06:46:20.982Z,75.04
2022-12-14T06:48:51.324Z,74.71
2022-12-14T06:51:17.862Z,74.66
2022-12-14T06:53:44.216Z,74.77
2022-12-14T06:56:14.872Z,74.77
2022-12-14T06:58:41.834Z,75.40
2022-12-14T07:01:10.021Z,74.91
2022-12-14T07:03:36.885Z,75.37
2022-12-14T07:06:04.042Z,75.36
2022-12-14T07:08:31.355Z,75.12
2022-12-14T07:11:02.583Z,75.50
2022-12-14T07:13:29.787Z,75.10
2022-12-14T07:15:57.269Z,75.26
2022-12-14T07:18:23.959Z,75.78
2022-12-14T07:21:04.549Z,76.36
2022-12-14T07:23:32.126Z,75.88
2022-12-14T07:26:02.552Z,76.11
2022-12-14T07:28:29.216Z,75.40
2022-12-14T07:30:56.598Z,75.30
2022-12-14T07:33:23.411Z,75.45
2022-12-14T07:35:50.618Z,75.17
2022-12-14T07:38:17.417Z,75.19
2022-12-14T07:40:44.301Z,74.96
2022-12-14T07:43:10.923Z,74.57
2022-12-14T07:45:37.318Z,75.42
2022-12-14T07:48:06.172Z,75.20
2022-12-14T07:50:32.487Z,74.85
2022-12-14T07:52:58.900Z,75.04
2022-12-14T07:55:25.990Z,75.08
2022-12-14T07:57:52.319Z,74.87
2022-12-14T08:00:18.797Z,74.54
2022-12-14T08:02:45.247Z,75.04
2022-12-14T08:05:12.976Z,74.97
2022-12-14T08:07:39.582Z,74.60
2022-12-14T08:10:06.238Z,74.74
2022-12-14T08:12:32.654Z,74.51
2022-12-14T08:14:59.053Z,75.15
2022-12-14T08:17:25.490Z,74.96
2022-12-14T08:19:51.884Z,74.69
2022-12-14T08:22:18.212Z,75.53
2022-12-14T08:24:44.579Z,74.99
2022-12-14T08:27:16.256Z,75.03
2022-12-14T08:29:42.646Z,75.03
2022-12-14T08:32:08.963Z,73.91
2022-12-14T08:34:35.333Z,71.78
2022-12-14T08:37:01.812Z,70.61
2022-12-14T08:39:28.307Z,70.44
2022-12-14T08:41:55.353Z,69.69
2022-12-14T08:44:21.653Z,68.95
2022-12-14T08:46:48.226Z,67.99
2022-12-14T08:49:14.750Z,67.96
2022-12-14T08:51:41.921Z,68.56
2022-12-14T08:54:08.298Z,68.24
2022-12-14T08:56:34.885Z,69.71
2022-12-14T08:59:01.517Z,70.67
2022-12-14T09:01:33.624Z,70.82
2022-12-14T09:04:08.014Z,71.52
2022-12-14T09:06:36.905Z,71.85
2022-12-14T09:09:03.999Z,72.27
2022-12-14T09:11:30.420Z,73.45
2022-12-14T09:13:56.835Z,74.06
2022-12-14T09:16:26.177Z,73.79
2022-12-14T09:18:53.054Z,72.41
2022-12-14T09:21:19.461Z,73.52
2022-12-14T09:23:46.333Z,73.58
2022-12-14T09:26:17.403Z,73.92
2022-12-14T09:28:54.187Z,73.92
2022-12-14T09:31:21.698Z,73.08
2022-12-14T09:33:48.355Z,72.44
2022-12-14T09:36:19.534Z,72.89
2022-12-14T09:38:51.183Z,72.75
2022-12-14T09:41:33.807Z,73.06
2022-12-14T09:44:19.151Z,73.31
2022-12-14T09:47:04.346Z,72.71
2022-12-14T09:49:31.985Z,70.92
2022-12-14T09:52:03.296Z,71.96
2022-12-14T09:54:33.220Z,72.27
2022-12-14T09:57:03.077Z,72.09
2022-12-14T09:59:30.063Z,70.27
2022-12-14T10:02:31.078Z,69.84
2022-12-14T10:05:14.777Z,69.68
2022-12-14T10:08:06.889Z,68.30
2022-12-14T10:10:43.892Z,67.69
2022-12-14T10:13:16.036Z,68.42
2022-12-14T10:15:48.512Z,67.42
2022-12-14T10:18:58.825Z,67.64
2022-12-14T10:21:28.103Z,66.44
2022-12-14T10:23:57.378Z,66.75
2022-12-14T10:26:27.463Z,66.33
2022-12-14T10:29:01.522Z,65.95
2022-12-14T10:31:44.720Z,65.33
2022-12-14T10:34:16.619Z,62.81
2022-12-14T10:37:03.141Z,62.28
2022-12-14T10:39:49.286Z,65.08
2022-12-14T10:42:24.628Z,60.09
2022-12-14T10:48:32.042Z,63.16
2022-12-14T10:51:01.780Z,65.56
2022-12-14T10:53:35.793Z,63.64
2022-12-14T10:56:11.174Z,65.10
2022-12-14T10:58:37.602Z,62.59
2022-12-14T11:01:03.997Z,61.58
2022-12-14T11:03:30.624Z,64.27
2022-12-14T11:06:02.480Z,61.82
2022-12-14T11:08:58.371Z,60.12
2022-12-14T11:11:25.952Z,59.19
2022-12-14T11:13:54.158Z,60.73
2022-12-14T11:16:30.303Z,59.56
2022-12-14T11:19:01.707Z,59.46
2022-12-14T11:21:33.070Z,58.40
2022-12-14T11:23:59.446Z,56.51
2022-12-14T11:26:31.705Z,60.71
2022-12-14T11:28:59.523Z,56.79
2022-12-14T11:31:33.472Z,55.78
2022-12-14T11:34:00.711Z,57.07
2022-12-14T11:36:32.987Z,57.56
2022-12-14T11:39:00.957Z,57.70
2022-12-14T11:41:31.044Z,58.82
2022-12-14T11:44:02.054Z,58.23
2022-12-14T11:46:47.344Z,57.57
2022-12-14T11:49:29.207Z,58.48
2022-12-14T11:52:01.402Z,58.45
2022-12-14T11:54:28.892Z,56.41
2022-12-14T11:56:57.844Z,55.91
2022-12-14T11:59:25.767Z,57.62
2022-12-14T12:01:52.497Z,52.97
2022-12-14T12:04:19.169Z,55.17
2022-12-14T12:06:45.753Z,56.20
2022-12-14T12:09:25.127Z,55.05
2022-12-14T12:11:51.701Z,56.48
2022-12-14T12:14:30.609Z,55.56
2022-12-14T12:16:57.815Z,55.41
2022-12-14T12:19:37.100Z,57.05
2022-12-14T12:22:05.303Z,54.40
2022-12-14T12:24:55.075Z,54.79
2022-12-14T12:27:24.755Z,55.52
2022-12-14T12:30:03.581Z,55.22
2022-12-14T12:32:51.254Z,55.45
2022-12-14T12:35:32.887Z,53.70
2022-12-14T12:38:03.184Z,52.96
2022-12-14T12:40:46.629Z,52.13
2022-12-14T12:43:20.131Z,54.24
2022-12-14T12:45:49.605Z,52.82
2022-12-14T12:48:26.227Z,54.18
2022-12-14T12:50:59.726Z,53.12
2022-12-14T12:53:35.816Z,52.92
2022-12-14T12:56:05.887Z,54.26
2022-12-14T12:58:34.214Z,54.23
2022-12-14T13:01:02.391Z,53.99
2022-12-14T13:03:37.493Z,55.20
2022-12-14T13:06:16.025Z,56.35
2022-12-14T13:08:43.692Z,55.61
2022-12-14T13:11:26.193Z,56.07
2022-12-14T13:14:00.314Z,56.79
2022-12-14T13:16:32.594Z,56.19
2022-12-14T13:19:19.037Z,57.13
2022-12-14T13:21:50.806Z,56.17
2022-12-14T13:24:18.583Z,56.54
2022-12-14T13:26:58.565Z,56.17
2022-12-14T13:29:34.331Z,56.58
2022-12-14T13:32:18.147Z,56.10
2022-12-14T13:34:44.445Z,55.77
2022-12-14T13:37:37.311Z,54.88
2022-12-14T13:40:13.547Z,56.18
2022-12-14T13:42:43.092Z,56.05
2022-12-14T13:45:18.305Z,56.92
2022-12-14T13:47:48.518Z,56.84
2022-12-14T13:50:35.793Z,56.76
2022-12-14T13:53:13.036Z,57.21
2022-12-14T13:55:52.076Z,57.04
2022-12-14T13:58:47.919Z,56.75
2022-12-14T14:01:18.025Z,55.65
2022-12-14T14:03:46.813Z,57.12
2022-12-14T14:06:19.230Z,57.66
2022-12-14T14:08:47.167Z,57.47
2022-12-14T14:11:38.953Z,57.05
2022-12-14T14:14:17.271Z,58.06
2022-12-14T14:17:02.270Z,57.80
2022-12-14T14:19:34.802Z,58.25
2022-12-14T14:22:26.428Z,59.37
2022-12-14T14:24:56.138Z,58.63
2022-12-14T14:27:24.540Z,59.82
2022-12-14T14:29:51.741Z,60.63
2022-12-14T14:32:38.286Z,60.52
2022-12-14T14:35:07.872Z,60.13
2022-12-14T14:37:36.519Z,60.37
2022-12-14T14:40:23.951Z,60.27
2022-12-14T14:43:03.922Z,60.65
2022-12-14T14:45:38.839Z,60.80
2022-12-14T14:48:20.769Z,61.57
2022-12-14T14:50:48.903Z,60.94
2022-12-14T14:53:18.347Z,60.74
2022-12-14T14:55:54.439Z,61.21
2022-12-14T14:58:25.681Z,61.05
2022-12-14T15:00:52.009Z,61.14
2022-12-14T15:03:22.299Z,61.68
2022-12-14T15:05:49.750Z,61.37
2022-12-14T15:08:34.161Z,61.64
2022-12-14T15:11:03.747Z,62.26
2022-12-14T15:13:35.213Z,64.27
2022-12-14T15:16:01.711Z,61.91
2022-12-14T15:18:32.832Z,61.48
2022-12-14T15:21:05.425Z,61.26
2022-12-14T15:23:49.416Z,62.25
2022-12-14T15:26:19.647Z,62.08
2022-12-14T15:28:50.364Z,62.87
2022-12-14T15:31:17.231Z,62.62
2022-12-14T15:33:44.670Z,63.07
2022-12-14T15:36:16.129Z,63.12
2022-12-14T15:38:51.002Z,62.97
2022-12-14T15:41:18.316Z,63.03
2022-12-14T15:43:45.778Z,63.60
2022-12-14T15:46:17.526Z,63.61
2022-12-14T15:48:44.212Z,64.32
2022-12-14T15:51:16.611Z,64.02
2022-12-14T15:53:50.337Z,64.03
2022-12-14T15:56:26.353Z,63.95
2022-12-14T15:58:53.236Z,64.43
2022-12-14T16:01:22.328Z,64.46
2022-12-14T16:03:54.564Z,65.19
2022-12-14T16:06:22.253Z,65.23
2022-12-14T16:08:55.042Z,65.12
2022-12-14T16:11:41.888Z,65.17
2022-12-14T16:14:31.137Z,65.41
2022-12-14T16:16:57.718Z,65.22
2022-12-14T16:19:28.924Z,65.82
2022-12-14T16:22:08.624Z,65.39
2022-12-14T16:24:35.715Z,66.21
2022-12-14T16:27:02.271Z,65.85
2022-12-14T16:29:29.960Z,65.79
2022-12-14T16:32:15.416Z,65.74
2022-12-14T16:34:45.666Z,66.12
2022-12-14T16:37:32.179Z,66.18
2022-12-14T16:39:59.344Z,66.44
2022-12-14T16:42:26.477Z,66.73
2022-12-14T16:44:56.121Z,66.36
2022-12-14T16:47:34.711Z,66.39
2022-12-14T16:50:01.136Z,66.77
2022-12-14T16:52:32.397Z,67.47
2022-12-14T16:55:14.653Z,66.81
2022-12-14T16:57:58.673Z,68.01
2022-12-14T17:00:29.942Z,68.02
2022-12-14T17:02:58.916Z,67.83
2022-12-14T17:05:28.834Z,68.26
2022-12-14T17:07:55.168Z,69.10
2022-12-14T17:10:22.778Z,68.67
2022-12-14T17:12:49.679Z,69.01
2022-12-14T17:15:17.235Z,68.74
2022-12-14T17:17:44.584Z,69.42
2022-12-14T17:20:21.709Z,68.65
2022-12-14T17:22:49.648Z,68.57
2022-12-14T17:25:16.274Z,68.89
2022-12-14T17:27:42.621Z,69.32
2022-12-14T17:30:14.526Z,68.54
2022-12-14T17:32:42.700Z,69.38
2022-12-14T17:35:20.384Z,69.52
2022-12-14T17:37:47.159Z,69.37
2022-12-14T17:40:15.818Z,69.77
2022-12-14T17:42:44.554Z,69.16
2022-12-14T17:45:27.828Z,69.11
2022-12-14T17:47:54.719Z,69.38
2022-12-14T17:50:21.605Z,69.71
2022-12-14T17:52:48.395Z,68.78
2022-12-14T17:55:19.583Z,69.47
2022-12-14T17:57:47.185Z,70.02
2022-12-14T18:00:35.907Z,69.04
2022-12-14T18:03:03.379Z,70.00
2022-12-14T18:05:30.490Z,70.57
2022-12-14T18:07:56.899Z,69.81
2022-12-14T18:10:23.338Z,70.31
2022-12-14T18:12:49.821Z,70.45
2022-12-14T18:15:30.108Z,70.92
2022-12-14T18:17:56.528Z,70.58
2022-12-14T18:20:23.906Z,70.80
2022-12-14T18:22:50.891Z,70.07
2022-12-14T18:25:29.235Z,69.73
2022-12-14T18:27:55.665Z,70.17
2022-12-14T18:30:22.148Z,71.01
2022-12-14T18:32:48.602Z,71.28
2022-12-14T18:35:19.649Z,72.08
2022-12-14T18:37:49.360Z,71.21
2022-12-14T18:40:18.019Z,72.15
2022-12-14T18:42:44.848Z,71.99
2022-12-14T18:45:21.579Z,71.30
2022-12-14T18:47:48.709Z,72.26
2022-12-14T18:50:16.297Z,71.74
2022-12-14T18:52:43.243Z,72.44
2022-12-14T18:55:15.843Z,71.91
2022-12-14T18:57:45.003Z,72.37
2022-12-14T19:00:12.996Z,71.96
2022-12-14T19:02:39.798Z,71.67
2022-12-14T19:05:07.151Z,71.16
2022-12-14T19:07:33.560Z,71.71
2022-12-14T19:10:00.239Z,71.78
2022-12-14T19:12:26.640Z,71.52
2022-12-14T19:14:53.318Z,71.43
2022-12-14T19:17:19.769Z,71.54
2022-12-14T19:19:46.115Z,71.32
2022-12-14T19:22:12.609Z,71.42
2022-12-14T19:24:39.033Z,71.29
2022-12-14T19:27:06.069Z,71.48
2022-12-14T19:29:32.497Z,71.81
2022-12-14T19:32:03.537Z,71.34
2022-12-14T19:34:32.053Z,70.54
2022-12-14T19:36:58.442Z,72.05
2022-12-14T19:39:24.757Z,71.88
2022-12-14T19:41:51.245Z,71.64
2022-12-14T19:44:17.763Z,71.07
2022-12-14T19:46:44.236Z,71.24
2022-12-14T19:49:12.782Z,71.70
2022-12-14T19:51:39.145Z,71.47
2022-12-14T19:54:06.740Z,71.72
2022-12-14T19:56:33.152Z,71.84
2022-12-14T19:59:00.839Z,72.12
2022-12-14T20:01:31.629Z,73.00
2022-12-14T20:04:00.165Z,72.55
2022-12-14T20:06:26.633Z,72.29
2022-12-14T20:08:56.669Z,72.33
2022-12-14T20:11:24.066Z,72.25
2022-12-14T20:13:56.257Z,72.37
2022-12-14T20:16:23.907Z,71.69
2022-12-14T20:18:50.332Z,71.64
2022-12-14T20:21:21.847Z,71.14
2022-12-14T20:23:49.171Z,71.48
2022-12-14T20:26:17.276Z,71.03
2022-12-14T20:28:43.717Z,71.34
2022-12-14T20:31:15.326Z,71.96
2022-12-14T20:33:41.721Z,71.84
2022-12-14T20:36:08.306Z,72.01
2022-12-14T20:38:34.676Z,72.07
2022-12-14T20:41:07.098Z,71.47
2022-12-14T20:43:34.838Z,72.19
2022-12-14T20:46:01.247Z,71.28
2022-12-14T20:48:27.640Z,72.00
2022-12-14T20:50:59.331Z,72.09
2022-12-14T20:53:26.017Z,71.58
2022-12-14T20:55:52.355Z,71.34
2022-12-14T20:58:18.767Z,71.58
2022-12-14T21:00:45.209Z,71.74
2022-12-14T21:03:11.808Z,71.83
2022-12-14T21:05:41.951Z,70.78
2022-12-14T21:08:08.614Z,71.63
2022-12-14T21:10:35.131Z,71.15
2022-12-14T21:13:07.282Z,70.69
2022-12-14T21:15:35.381Z,71.04
2022-12-14T21:18:02.435Z,70.83
2022-12-14T21:20:28.829Z,70.69
2022-12-14T21:22:55.179Z,70.85
2022-12-14T21:25:21.615Z,70.67
2022-12-14T21:27:47.990Z,70.71
2022-12-14T21:30:14.459Z,70.95
2022-12-14T21:32:41.696Z,70.83
2022-12-14T21:35:08.890Z,70.49
2022-12-14T21:37:36.926Z,70.57
2022-12-14T21:40:03.832Z,69.95
2022-12-14T21:42:30.223Z,69.63
2022-12-14T21:44:57.558Z,69.41
2022-12-14T21:47:25.283Z,70.02
2022-12-14T21:49:51.701Z,70.01
2022-12-14T21:52:19.925Z,69.54
2022-12-14T21:54:46.455Z,69.67
2022-12-14T21:57:32.780Z,69.77
2022-12-14T21:59:59.201Z,70.25
2022-12-14T22:02:25.651Z,69.86
2022-12-14T22:04:55.923Z,70.48
2022-12-14T22:07:23.487Z,70.57
2022-12-14T22:09:50.231Z,71.01
2022-12-14T22:12:17.417Z,71.10
2022-12-14T22:14:43.753Z,71.55
2022-12-14T22:17:11.221Z,71.10
2022-12-14T22:19:37.555Z,71.50
2022-12-14T22:22:03.991Z,71.34
2022-12-14T22:24:30.535Z,72.11
2022-12-14T22:26:57.211Z,71.48
2022-12-14T22:29:24.073Z,72.08
2022-12-14T22:31:51.363Z,72.53
2022-12-14T22:34:19.168Z,72.96
2022-12-14T22:36:45.934Z,72.30
2022-12-14T22:39:12.395Z,73.01
2022-12-14T22:41:39.052Z,72.89
2022-12-14T22:44:05.462Z,72.71
2022-12-14T22:46:33.164Z,73.42
2022-12-14T22:49:01.221Z,73.69
2022-12-14T22:51:29.170Z,72.76
2022-12-14T22:53:56.176Z,73.29
2022-12-14T22:56:41.496Z,73.61
2022-12-14T22:59:10.994Z,73.43
2022-12-14T23:01:37.907Z,73.08
2022-12-14T23:04:06.203Z,73.63
2022-12-14T23:06:33.219Z,73.62
2022-12-14T23:09:18.215Z,74.21
2022-12-14T23:12:03.079Z,74.31
2022-12-14T23:14:48.059Z,74.79
2022-12-14T23:17:33.279Z,74.13
2022-12-14T23:20:18.454Z,74.62
2022-12-14T23:23:03.803Z,75.15
2022-12-14T23:25:51.731Z,75.34
2022-12-14T23:28:36.668Z,75.44
2022-12-14T23:31:21.571Z,76.26
2022-12-14T23:34:06.793Z,76.25
2022-12-14T23:36:51.616Z,76.12
2022-12-14T23:39:36.503Z,76.22
2022-12-14T23:42:21.620Z,76.60
2022-12-14T23:45:06.481Z,76.63
2022-12-14T23:47:51.662Z,76.20
2022-12-14T23:50:36.856Z,76.75
2022-12-14T23:53:25.446Z,77.07
2022-12-14T23:56:10.316Z,76.69
2022-12-14T23:58:55.784Z,76.31
